createdAt,value
2023-05-01T00:01:50.375Z,4.17
2023-05-01T00:16:52.529Z,5.50
2023-05-01T00:31:55.081Z,5.63
2023-05-01T00:47:00.768Z,5.97
2023-05-01T01:17:29.778Z,4.57
2023-05-01T01:32:34.258Z,5.83
2023-05-01T01:47:37.056Z,7.37
2023-05-01T02:02:40.131Z,6.37
2023-05-01T02:17:42.497Z,8.57
2023-05-01T02:32:44.674Z,7.90
2023-05-01T02:47:52.599Z,8.50
2023-05-01T03:02:54.897Z,7.13
2023-05-01T03:17:56.812Z,5.53
2023-05-01T03:32:58.667Z,5.30
2023-05-01T03:48:00.872Z,8.07
2023-05-01T04:03:02.928Z,7.37
2023-05-01T04:18:05.093Z,9.93
2023-05-01T04:33:11.678Z,11.10
2023-05-01T04:48:14.072Z,10.57
2023-05-01T05:03:19.216Z,8.60
2023-05-01T05:18:21.232Z,5.53
2023-05-01T05:33:25.115Z,3.90
2023-05-01T05:48:27.889Z,2.00
2023-05-01T06:03:30.406Z,2.20
2023-05-01T06:18:32.341Z,2.37
2023-05-01T07:31:43.018Z,1.70
2023-05-01T07:47:12.448Z,2.43
2023-05-01T08:02:14.501Z,1.40
2023-05-01T08:17:21.497Z,1.70
2023-05-01T08:32:23.914Z,2.30
2023-05-01T08:47:27.770Z,2.43
2023-05-01T09:02:31.491Z,1.93
2023-05-01T09:17:34.765Z,1.43
2023-05-01T09:32:37.514Z,1.80
2023-05-01T09:47:40.188Z,2.40
2023-05-01T10:02:46.311Z,1.87
2023-05-01T10:17:51.695Z,1.43
2023-05-01T10:47:56.300Z,3.30
2023-05-01T11:03:23.159Z,1.20
2023-05-01T11:18:47.626Z,1.13
2023-05-01T11:33:50.125Z,11.37
2023-05-01T11:48:51.984Z,2.00
2023-05-01T12:03:54.282Z,1.60
2023-05-01T12:18:56.606Z,2.10
2023-05-01T12:34:01.306Z,2.47
2023-05-01T12:49:03.317Z,2.73
2023-05-01T13:04:05.330Z,2.53
2023-05-01T13:19:07.713Z,2.60
2023-05-01T13:34:09.865Z,2.27
2023-05-01T13:49:12.473Z,2.50
2023-05-01T14:04:17.374Z,2.40
2023-05-01T14:19:31.492Z,2.37
2023-05-01T14:34:34.101Z,2.90
2023-05-01T14:49:36.233Z,3.07
2023-05-01T15:04:38.197Z,2.33
2023-05-01T15:19:40.154Z,1.83
2023-05-01T15:34:43.069Z,2.97
2023-05-01T15:49:45.055Z,2.67
2023-05-01T16:04:48.025Z,2.67
2023-05-01T16:19:49.996Z,3.10
2023-05-01T16:34:52.025Z,16.27
2023-05-01T16:50:00.491Z,18.13
2023-05-01T17:05:03.083Z,7.60
2023-05-01T17:20:06.529Z,3.73
2023-05-01T17:35:08.893Z,7.60
2023-05-01T17:50:15.173Z,3.77
2023-05-01T18:05:23.293Z,6.93
2023-05-01T18:20:25.699Z,5.90
2023-05-01T18:35:28.292Z,4.60
2023-05-01T18:50:30.549Z,4.83
2023-05-01T19:05:32.925Z,11.17
2023-05-01T19:20:35.176Z,9.50
2023-05-01T19:35:37.621Z,11.27
2023-05-01T19:50:39.457Z,10.33
2023-05-01T20:06:07.658Z,9.73
2023-05-01T20:21:09.559Z,9.40
2023-05-01T20:36:11.772Z,8.13
2023-05-01T20:51:14.797Z,7.23
2023-05-01T21:06:16.776Z,6.67
2023-05-01T21:21:18.806Z,9.33
2023-05-01T21:36:21.241Z,14.63
2023-05-01T21:51:30.201Z,14.40
2023-05-01T22:06:32.541Z,11.93
2023-05-01T22:21:34.617Z,9.80
2023-05-01T22:36:40.862Z,6.13
2023-05-01T22:51:42.764Z,7.17
2023-05-01T23:06:44.841Z,7.13
2023-05-01T23:21:47.043Z,5.80
2023-05-01T23:36:48.964Z,6.37
2023-05-01T23:51:50.829Z,6.10
